createdAt,value
2018-04-23T00:01:09.559Z,11.70
2018-04-23T00:03:37.891Z,12.10
2018-04-23T00:06:06.241Z,11.70
2018-04-23T00:08:34.569Z,11.77
2018-04-23T00:11:02.933Z,11.40
2018-04-23T00:13:31.260Z,11.00
2018-04-23T00:15:59.598Z,12.20
2018-04-23T00:18:27.942Z,11.90
2018-04-23T00:20:56.313Z,11.87
2018-04-23T00:23:24.641Z,11.73
2018-04-23T00:25:52.977Z,13.37
2018-04-23T00:28:21.294Z,12.73
2018-04-23T00:30:49.645Z,13.67
2018-04-23T00:33:17.963Z,13.20
2018-04-23T00:35:46.302Z,12.60
2018-04-23T00:38:14.663Z,13.37
2018-04-23T00:40:42.986Z,13.03
2018-04-23T00:43:11.344Z,12.93
2018-04-23T00:45:39.680Z,13.07
2018-04-23T00:48:08.033Z,13.40
2018-04-23T00:50:36.366Z,14.03
2018-04-23T00:53:16.483Z,12.70
2018-04-23T00:55:44.806Z,14.40
2018-04-23T00:58:13.151Z,13.87
2018-04-23T01:00:41.500Z,13.07
2018-04-23T01:03:09.848Z,13.90
2018-04-23T01:05:38.170Z,13.20
2018-04-23T01:08:06.524Z,14.80
2018-04-23T01:10:34.859Z,12.80
2018-04-23T01:13:03.203Z,13.40
2018-04-23T01:15:31.543Z,13.60
2018-04-23T01:17:59.909Z,13.97
2018-04-23T01:20:28.230Z,13.63
2018-04-23T01:22:56.588Z,13.37
2018-04-23T01:25:24.927Z,13.80
2018-04-23T01:27:53.460Z,14.30
2018-04-23T01:30:21.857Z,13.37
2018-04-23T01:32:50.188Z,14.03
2018-04-23T01:35:18.583Z,15.97
2018-04-23T01:37:46.917Z,13.97
2018-04-23T01:40:15.261Z,15.97
2018-04-23T01:42:43.569Z,15.30
2018-04-23T01:45:11.919Z,15.13
2018-04-23T01:47:40.243Z,15.63
2018-04-23T01:50:08.623Z,15.80
2018-04-23T01:52:37.834Z,16.77
2018-04-23T01:55:06.176Z,16.47
2018-04-23T01:57:34.503Z,15.43
2018-04-23T02:00:02.882Z,15.97
2018-04-23T02:02:33.069Z,15.40
2018-04-23T02:05:01.409Z,15.23
2018-04-23T02:07:29.745Z,14.70
2018-04-23T02:09:59.149Z,17.37
2018-04-23T02:12:27.468Z,17.40
2018-04-23T02:14:55.787Z,16.63
2018-04-23T02:17:24.145Z,17.43
2018-04-23T02:19:52.464Z,17.27
2018-04-23T02:22:20.817Z,16.90
2018-04-23T02:24:49.126Z,18.90
2018-04-23T02:27:17.463Z,19.37
2018-04-23T02:29:45.785Z,18.40
2018-04-23T02:32:14.120Z,19.33
2018-04-23T02:34:42.443Z,18.83
2018-04-23T02:37:10.777Z,19.80
2018-04-23T02:39:39.118Z,19.67
2018-04-23T02:42:07.459Z,18.73
2018-04-23T02:44:35.784Z,18.27
2018-04-23T02:47:04.126Z,18.33
2018-04-23T02:49:32.447Z,18.77
2018-04-23T02:52:00.797Z,19.10
2018-04-23T02:54:29.225Z,18.73
2018-04-23T02:56:57.574Z,21.23
2018-04-23T02:59:25.904Z,20.30
2018-04-23T03:01:54.223Z,18.43
2018-04-23T03:04:22.591Z,21.63
2018-04-23T03:06:50.918Z,20.23
2018-04-23T03:09:19.262Z,19.77
2018-04-23T03:11:47.590Z,19.50
2018-04-23T03:14:15.973Z,17.80
2018-04-23T03:16:44.283Z,20.37
2018-04-23T03:19:12.626Z,21.23
2018-04-23T03:21:40.944Z,23.27
2018-04-23T03:24:09.275Z,22.27
2018-04-23T03:26:37.621Z,21.57
2018-04-23T03:29:05.956Z,21.87
2018-04-23T03:31:34.284Z,20.17
2018-04-23T03:34:02.649Z,21.33
2018-04-23T03:36:31.041Z,22.07
2018-04-23T03:38:59.378Z,20.70
2018-04-23T03:41:27.709Z,24.13
2018-04-23T03:43:56.051Z,21.57
2018-04-23T03:46:24.384Z,20.87
2018-04-23T03:48:52.705Z,21.77
2018-04-23T03:51:21.032Z,22.23
2018-04-23T03:53:49.373Z,22.37
2018-04-23T03:56:18.211Z,22.00
2018-04-23T03:58:46.532Z,21.47
2018-04-23T04:01:14.874Z,23.10
2018-04-23T04:03:43.288Z,21.67
2018-04-23T04:06:11.626Z,23.03
2018-04-23T04:08:39.971Z,22.50
2018-04-23T04:11:08.316Z,22.20
2018-04-23T04:13:48.510Z,22.00
2018-04-23T04:16:28.601Z,22.50
2018-04-23T04:18:56.948Z,22.43
2018-04-23T04:21:25.300Z,21.97
2018-04-23T04:23:53.672Z,21.47
2018-04-23T04:26:22.003Z,15.93
2018-04-23T04:28:51.161Z,17.87
2018-04-23T04:31:19.501Z,18.70
2018-04-23T04:33:47.834Z,18.90
2018-04-23T04:36:16.281Z,17.33
2018-04-23T04:38:44.594Z,15.60
2018-04-23T04:41:12.921Z,15.70
2018-04-23T04:43:41.265Z,14.07
2018-04-23T04:46:10.034Z,15.40
2018-04-23T04:48:42.917Z,13.33
2018-04-23T04:51:11.250Z,16.10
2018-04-23T04:53:39.659Z,14.37
2018-04-23T04:56:07.995Z,14.87
2018-04-23T04:58:36.334Z,14.27
2018-04-23T05:01:04.660Z,15.07
2018-04-23T05:03:33.073Z,12.83
2018-04-23T05:06:01.404Z,13.27
2018-04-23T05:08:29.840Z,13.23
2018-04-23T05:10:58.185Z,12.17
2018-04-23T05:13:26.536Z,14.10
2018-04-23T05:15:54.856Z,13.53
2018-04-23T05:18:23.183Z,12.57
2018-04-23T05:20:51.633Z,11.50
2018-04-23T05:23:20.032Z,12.27
2018-04-23T05:25:48.433Z,12.50
2018-04-23T05:28:16.789Z,12.23
2018-04-23T05:30:45.372Z,12.63
2018-04-23T05:33:13.788Z,11.23
2018-04-23T05:35:42.116Z,10.17
2018-04-23T05:38:10.438Z,11.50
2018-04-23T05:40:38.823Z,11.47
2018-04-23T05:43:07.257Z,12.13
2018-04-23T05:45:35.601Z,11.70
2018-04-23T05:48:03.954Z,10.60
2018-04-23T05:50:32.287Z,9.40
2018-04-23T05:53:00.621Z,10.63
2018-04-23T05:55:29.002Z,10.63
2018-04-23T05:57:57.326Z,10.43
2018-04-23T06:00:25.663Z,10.47
2018-04-23T06:02:54.003Z,10.27
2018-04-23T06:05:22.370Z,9.97
2018-04-23T06:07:50.688Z,9.37
2018-04-23T06:10:19.025Z,10.80
2018-04-23T06:12:47.369Z,9.60
2018-04-23T06:15:15.707Z,10.13
2018-04-23T06:17:44.036Z,9.37
2018-04-23T06:20:12.375Z,10.50
2018-04-23T06:22:40.720Z,9.97
2018-04-23T06:25:09.088Z,9.53
2018-04-23T06:27:37.427Z,8.60
2018-04-23T06:30:05.760Z,9.57
2018-04-23T06:32:34.112Z,8.77
2018-04-23T06:35:02.446Z,9.87
2018-04-23T06:37:30.969Z,8.73
2018-04-23T06:39:59.329Z,9.97
2018-04-23T06:42:27.681Z,8.87
2018-04-23T06:44:56.031Z,8.20
2018-04-23T06:47:24.380Z,7.93
2018-04-23T06:49:52.807Z,9.17
2018-04-23T06:52:21.126Z,7.43
2018-04-23T06:54:49.485Z,7.53
2018-04-23T06:57:17.828Z,7.00
2018-04-23T06:59:46.139Z,6.20
2018-04-23T07:02:14.514Z,9.00
2018-04-23T07:04:42.916Z,7.10
2018-04-23T07:07:11.180Z,6.73
2018-04-23T07:09:39.517Z,6.90
2018-04-23T07:12:07.841Z,7.37
2018-04-23T07:14:36.153Z,7.67
2018-04-23T07:17:04.482Z,5.80
2018-04-23T07:19:32.797Z,7.80
2018-04-23T07:22:01.128Z,6.40
2018-04-23T07:24:29.473Z,6.63
2018-04-23T07:26:57.791Z,7.20
2018-04-23T07:29:26.141Z,6.20
2018-04-23T07:31:54.467Z,7.43
2018-04-23T07:34:22.780Z,6.37
2018-04-23T07:36:51.104Z,6.27
2018-04-23T07:39:19.444Z,7.80
2018-04-23T07:41:47.769Z,6.23
2018-04-23T07:44:16.144Z,6.73
2018-04-23T07:46:44.482Z,7.50
2018-04-23T07:49:12.782Z,7.80
2018-04-23T07:51:41.139Z,7.40
2018-04-23T07:54:09.557Z,8.40
2018-04-23T07:56:37.864Z,7.97
2018-04-23T07:59:06.191Z,8.07
2018-04-23T08:01:34.515Z,6.70
2018-04-23T08:04:02.850Z,7.33
2018-04-23T08:06:31.194Z,7.40
2018-04-23T08:08:59.572Z,7.30
2018-04-23T08:11:27.947Z,8.13
2018-04-23T08:13:56.292Z,8.93
2018-04-23T08:16:24.716Z,8.70
2018-04-23T08:18:53.093Z,7.87
2018-04-23T08:21:21.422Z,8.40
2018-04-23T08:23:49.772Z,7.47
2018-04-23T08:26:18.138Z,8.77
2018-04-23T08:28:46.525Z,8.63
2018-04-23T08:31:14.877Z,8.57
2018-04-23T08:33:43.244Z,8.73
2018-04-23T08:36:11.592Z,10.20
2018-04-23T08:38:39.989Z,9.13
2018-04-23T08:41:08.328Z,10.40
2018-04-23T08:43:36.671Z,9.13
2018-04-23T08:46:05.004Z,8.53
2018-04-23T08:48:33.359Z,9.07
2018-04-23T08:51:01.681Z,9.53
2018-04-23T08:53:30.033Z,9.07
2018-04-23T08:55:58.381Z,8.53
2018-04-23T08:58:26.707Z,9.33
2018-04-23T09:00:55.047Z,9.83
2018-04-23T09:03:23.404Z,9.77
2018-04-23T09:05:52.449Z,9.07
2018-04-23T09:08:20.819Z,9.63
2018-04-23T09:10:49.388Z,9.63
2018-04-23T09:13:18.227Z,10.77
2018-04-23T09:15:46.748Z,9.70
2018-04-23T09:18:15.071Z,9.50
2018-04-23T09:20:43.430Z,9.17
2018-04-23T09:23:11.772Z,10.03
2018-04-23T09:25:40.112Z,10.03
2018-04-23T09:28:10.518Z,9.63
2018-04-23T09:30:38.869Z,9.73
2018-04-23T09:33:07.199Z,9.47
2018-04-23T09:35:35.550Z,9.43
2018-04-23T09:38:03.887Z,11.17
2018-04-23T09:40:32.220Z,9.30
2018-04-23T09:43:00.552Z,9.80
2018-04-23T09:45:28.879Z,11.20
2018-04-23T09:47:57.224Z,10.47
2018-04-23T09:50:25.543Z,10.87
2018-04-23T09:52:53.891Z,10.13
2018-04-23T09:55:22.220Z,9.77
2018-04-23T09:57:50.565Z,10.57
2018-04-23T10:00:24.529Z,10.20
2018-04-23T10:02:52.977Z,8.60
2018-04-23T10:05:21.294Z,9.87
2018-04-23T10:07:49.647Z,9.10
2018-04-23T10:10:18.002Z,9.87
2018-04-23T10:12:46.347Z,9.83
2018-04-23T10:15:14.685Z,9.90
2018-04-23T10:17:45.746Z,10.73
2018-04-23T10:20:14.099Z,10.13
2018-04-23T10:22:42.416Z,9.87
2018-04-23T10:25:10.758Z,8.23
2018-04-23T10:27:39.102Z,8.87
2018-04-23T10:30:07.433Z,8.13
2018-04-23T10:32:35.763Z,9.70
2018-04-23T10:35:04.124Z,8.73
2018-04-23T10:37:32.457Z,10.10
2018-04-23T10:40:00.808Z,8.93
2018-04-23T10:42:29.141Z,8.33
2018-04-23T10:44:57.595Z,9.43
2018-04-23T10:47:25.924Z,10.37
2018-04-23T10:49:54.278Z,9.40
2018-04-23T10:52:22.605Z,9.73
2018-04-23T10:54:50.977Z,10.03
2018-04-23T10:57:19.301Z,9.50
2018-04-23T10:59:47.644Z,9.33
2018-04-23T11:02:15.987Z,9.03
2018-04-23T11:04:44.325Z,9.50
2018-04-23T11:07:12.663Z,9.70
2018-04-23T11:09:41.007Z,8.00
2018-04-23T11:12:09.326Z,8.93
2018-04-23T11:14:37.674Z,8.60
2018-04-23T11:17:06.014Z,8.93
2018-04-23T11:19:34.341Z,9.30
2018-04-23T11:22:02.685Z,9.37
2018-04-23T11:24:31.032Z,8.60
2018-04-23T11:26:59.380Z,9.27
2018-04-23T11:29:27.706Z,10.87
2018-04-23T11:31:56.044Z,8.60
2018-04-23T11:34:24.376Z,8.03
2018-04-23T11:36:52.703Z,8.50
2018-04-23T11:39:21.020Z,9.50
2018-04-23T11:41:49.379Z,8.37
2018-04-23T11:44:17.691Z,7.57
2018-04-23T11:46:46.033Z,7.07
2018-04-23T11:49:14.352Z,6.70
2018-04-23T11:51:42.671Z,7.67
2018-04-23T11:54:11.009Z,8.20
2018-04-23T11:56:39.354Z,8.13
2018-04-23T11:59:07.697Z,8.60
2018-04-23T12:01:36.013Z,7.80
2018-04-23T12:04:04.337Z,9.63
2018-04-23T12:06:32.701Z,7.63
2018-04-23T12:09:01.051Z,8.77
2018-04-23T12:11:29.369Z,8.10
2018-04-23T12:13:57.733Z,8.73
2018-04-23T12:16:26.045Z,8.87
2018-04-23T12:18:54.373Z,7.87
2018-04-23T12:21:22.696Z,8.47
2018-04-23T12:23:51.028Z,8.10
2018-04-23T12:26:19.365Z,7.47
2018-04-23T12:28:47.707Z,7.83
2018-04-23T12:31:16.071Z,6.10
2018-04-23T12:33:44.400Z,7.10
2018-04-23T12:36:12.776Z,7.17
2018-04-23T12:38:41.167Z,8.00
2018-04-23T12:41:09.490Z,6.90
2018-04-23T12:43:37.808Z,7.83
2018-04-23T12:46:06.245Z,7.40
2018-04-23T12:48:34.499Z,8.17
2018-04-23T12:51:03.830Z,7.70
2018-04-23T12:53:32.167Z,7.60
2018-04-23T12:56:00.572Z,7.80
2018-04-23T12:58:28.940Z,6.60
2018-04-23T13:00:57.259Z,7.60
2018-04-23T13:03:25.594Z,6.87
2018-04-23T13:05:53.955Z,7.50
2018-04-23T13:08:22.308Z,7.43
2018-04-23T13:10:50.656Z,7.03
2018-04-23T13:13:18.970Z,8.00
2018-04-23T13:15:47.303Z,7.23
2018-04-23T13:18:15.669Z,7.50
2018-04-23T13:20:43.999Z,7.70
2018-04-23T13:23:12.637Z,7.63
2018-04-23T13:25:41.339Z,7.30
2018-04-23T13:28:09.680Z,8.63
2018-04-23T13:30:38.033Z,7.23
2018-04-23T13:33:06.383Z,9.63
2018-04-23T13:35:34.720Z,7.43
2018-04-23T13:38:03.069Z,8.00
2018-04-23T13:40:31.413Z,7.20
2018-04-23T13:42:59.775Z,8.07
2018-04-23T13:45:28.117Z,8.57
2018-04-23T13:47:56.475Z,9.27
2018-04-23T13:50:24.832Z,8.20
2018-04-23T13:52:53.197Z,7.80
2018-04-23T13:55:21.540Z,6.60
2018-04-23T13:57:49.975Z,7.40
2018-04-23T14:00:18.366Z,7.30
2018-04-23T14:02:46.746Z,8.17
2018-04-23T14:05:15.111Z,7.73
2018-04-23T14:07:43.429Z,8.90
2018-04-23T14:10:11.804Z,7.43
2018-04-23T14:12:40.151Z,7.47
2018-04-23T14:15:08.485Z,9.57
2018-04-23T14:17:36.862Z,8.23
2018-04-23T14:20:05.199Z,8.03
2018-04-23T14:22:33.642Z,8.97
2018-04-23T14:25:02.030Z,8.23
2018-04-23T14:27:30.379Z,8.17
2018-04-23T14:29:58.769Z,9.20
2018-04-23T14:32:27.126Z,8.13
2018-04-23T14:34:55.470Z,7.83
2018-04-23T14:37:23.869Z,8.93
2018-04-23T14:39:52.210Z,7.70
2018-04-23T14:42:20.569Z,8.20
2018-04-23T14:44:48.931Z,7.37
2018-04-23T14:47:17.288Z,7.87
2018-04-23T14:49:45.621Z,7.33
2018-04-23T14:52:13.985Z,8.03
2018-04-23T14:54:42.343Z,9.00
2018-04-23T14:57:10.727Z,8.30
2018-04-23T14:59:39.558Z,7.23
2018-04-23T15:02:07.927Z,7.03
2018-04-23T15:04:36.262Z,10.40
2018-04-23T15:07:04.815Z,7.43
2018-04-23T15:09:33.196Z,8.57
2018-04-23T15:12:01.516Z,8.53
2018-04-23T15:14:34.890Z,9.83
2018-04-23T15:17:03.255Z,11.73
2018-04-23T15:19:31.599Z,11.13
2018-04-23T15:21:59.960Z,11.83
2018-04-23T15:24:28.351Z,13.53
2018-04-23T15:26:56.679Z,13.60
2018-04-23T15:29:25.015Z,13.93
2018-04-23T15:31:53.361Z,14.23
2018-04-23T15:34:21.796Z,14.87
2018-04-23T15:36:50.436Z,15.87
2018-04-23T15:39:18.779Z,14.13
2018-04-23T15:41:47.127Z,13.67
2018-04-23T15:44:15.464Z,17.37
2018-04-23T15:46:43.823Z,16.77
2018-04-23T15:49:12.188Z,16.30
2018-04-23T15:51:40.574Z,16.30
2018-04-23T15:54:11.740Z,16.87
2018-04-23T15:56:40.098Z,17.13
2018-04-23T15:59:08.444Z,15.63
2018-04-23T16:01:36.795Z,16.07
2018-04-23T16:04:05.155Z,18.43
2018-04-23T16:06:33.524Z,17.60
2018-04-23T16:09:01.905Z,15.70
2018-04-23T16:11:30.232Z,16.93
2018-04-23T16:13:58.644Z,16.17
2018-04-23T16:16:27.042Z,17.23
2018-04-23T16:18:55.413Z,16.53
2018-04-23T16:21:23.869Z,17.97
2018-04-23T16:23:52.266Z,18.87
2018-04-23T16:26:21.499Z,18.00
2018-04-23T16:28:49.836Z,17.53
2018-04-23T16:31:18.185Z,17.80
2018-04-23T16:33:46.519Z,16.43
2018-04-23T16:36:14.860Z,18.03
2018-04-23T16:38:43.197Z,18.50
2018-04-23T16:41:11.591Z,18.87
2018-04-23T16:43:39.959Z,18.37
2018-04-23T16:46:08.468Z,17.73
2018-04-23T16:48:36.828Z,16.50
2018-04-23T16:51:05.167Z,18.23
2018-04-23T16:53:33.569Z,18.47
2018-04-23T16:56:01.903Z,18.43
2018-04-23T16:58:30.286Z,18.27
2018-04-23T17:00:58.638Z,19.47
2018-04-23T17:03:27.009Z,18.63
2018-04-23T17:05:55.388Z,20.37
2018-04-23T17:08:23.787Z,19.87
2018-04-23T17:10:53.019Z,19.37
2018-04-23T17:13:21.417Z,19.23
2018-04-23T17:15:49.777Z,19.20
2018-04-23T17:18:18.854Z,20.20
2018-04-23T17:20:47.209Z,19.70
2018-04-23T17:23:15.643Z,21.47
2018-04-23T17:25:44.028Z,19.53
2018-04-23T17:28:12.554Z,23.37
2018-04-23T17:30:40.921Z,22.50
2018-04-23T17:33:09.273Z,22.87
2018-04-23T17:35:37.604Z,23.30
2018-04-23T17:38:06.066Z,24.83
2018-04-23T17:40:34.435Z,24.30
2018-04-23T17:43:02.824Z,22.77
2018-04-23T17:45:31.240Z,21.83
2018-04-23T17:47:59.597Z,23.73
2018-04-23T17:50:27.950Z,19.83
2018-04-23T17:52:56.286Z,22.83
2018-04-23T17:55:24.700Z,20.77
2018-04-23T17:57:53.081Z,22.80
2018-04-23T18:00:21.474Z,22.30
2018-04-23T18:02:50.602Z,21.80
2018-04-23T18:05:19.022Z,22.83
2018-04-23T18:07:47.418Z,22.27
2018-04-23T18:10:15.782Z,22.10
2018-04-23T18:12:44.263Z,21.67
2018-04-23T18:15:12.731Z,21.43
2018-04-23T18:17:41.136Z,22.83
2018-04-23T18:20:09.447Z,23.73
2018-04-23T18:22:37.799Z,23.37
2018-04-23T18:25:06.192Z,23.20
2018-04-23T18:27:34.550Z,22.30
2018-04-23T18:30:02.897Z,26.17
2018-04-23T18:32:31.288Z,26.20
2018-04-23T18:34:59.669Z,26.53
2018-04-23T18:37:27.991Z,25.27
2018-04-23T18:39:56.450Z,24.20
2018-04-23T18:42:24.840Z,27.17
2018-04-23T18:44:53.199Z,26.87
2018-04-23T18:47:22.037Z,27.23
2018-04-23T18:49:50.455Z,23.60
2018-04-23T18:52:18.820Z,25.13
2018-04-23T18:54:47.196Z,25.57
2018-04-23T18:57:15.587Z,27.03
2018-04-23T18:59:43.973Z,25.77
2018-04-23T19:02:12.355Z,24.33
2018-04-23T19:04:40.709Z,26.27
2018-04-23T19:07:09.074Z,25.60
2018-04-23T19:09:37.447Z,25.97
2018-04-23T19:12:06.368Z,26.07
2018-04-23T19:14:35.044Z,27.43
2018-04-23T19:17:03.514Z,28.90
2018-04-23T19:19:31.924Z,27.13
2018-04-23T19:22:00.388Z,26.43
2018-04-23T19:24:28.787Z,25.97
2018-04-23T19:26:57.144Z,26.70
2018-04-23T19:29:25.678Z,26.50
2018-04-23T19:31:54.004Z,27.17
2018-04-23T19:34:22.413Z,25.47
2018-04-23T19:36:51.188Z,26.30
2018-04-23T19:39:19.547Z,26.93
2018-04-23T19:41:48.085Z,26.40
2018-04-23T19:44:16.457Z,26.13
2018-04-23T19:46:44.845Z,27.40
2018-04-23T19:49:13.200Z,27.10
2018-04-23T19:51:41.615Z,28.23
2018-04-23T19:54:09.993Z,29.13
2018-04-23T19:56:38.605Z,29.87
2018-04-23T19:59:06.953Z,28.20
2018-04-23T20:01:35.431Z,28.17
2018-04-23T20:04:04.644Z,29.47
2018-04-23T20:06:33.037Z,29.20
2018-04-23T20:09:01.406Z,27.23
2018-04-23T20:11:29.778Z,27.33
2018-04-23T20:13:58.132Z,28.67
2018-04-23T20:16:26.524Z,29.50
2018-04-23T20:18:54.884Z,30.27
2018-04-23T20:21:23.219Z,28.47
2018-04-23T20:23:51.660Z,28.30
2018-04-23T20:26:20.037Z,29.27
2018-04-23T20:28:48.395Z,27.60
2018-04-23T20:33:50.881Z,29.97
2018-04-23T20:36:19.223Z,30.30
2018-04-23T20:38:47.567Z,30.57
2018-04-23T20:41:15.953Z,29.50
2018-04-23T20:43:44.324Z,29.20
2018-04-23T20:46:12.718Z,29.33
2018-04-23T20:48:41.113Z,29.37
2018-04-23T20:51:09.532Z,30.13
2018-04-23T20:53:37.894Z,30.63
2018-04-23T20:56:06.304Z,31.00
2018-04-23T20:58:34.676Z,29.07
2018-04-23T21:01:03.050Z,29.80
2018-04-23T21:03:53.814Z,29.73
2018-04-23T21:06:26.637Z,25.83
2018-04-23T21:08:55.024Z,26.47
2018-04-23T21:11:23.385Z,24.40
2018-04-23T21:13:51.808Z,24.37
2018-04-23T21:16:20.947Z,26.43
2018-04-23T21:18:49.373Z,26.93
2018-04-23T21:21:17.726Z,26.60
2018-04-23T21:23:46.107Z,27.37
2018-04-23T21:26:14.461Z,26.93
2018-04-23T21:28:42.934Z,26.70
2018-04-23T21:31:11.270Z,24.57
2018-04-23T21:33:39.718Z,25.87
2018-04-23T21:36:08.084Z,26.00
2018-04-23T21:38:36.446Z,28.57
2018-04-23T21:41:04.775Z,27.23
2018-04-23T21:43:33.197Z,26.20
2018-04-23T21:46:01.535Z,25.33
2018-04-23T21:48:29.908Z,26.73
2018-04-23T21:50:58.284Z,28.87
2018-04-23T21:53:26.677Z,27.43
2018-04-23T21:55:55.052Z,26.67
2018-04-23T21:58:23.801Z,26.73
2018-04-23T22:00:52.168Z,27.60
2018-04-23T22:03:20.536Z,26.43
2018-04-23T22:05:48.912Z,26.57
2018-04-23T22:08:17.294Z,26.53
2018-04-23T22:10:45.709Z,25.17
2018-04-23T22:13:14.080Z,26.73
2018-04-23T22:15:42.453Z,25.27
2018-04-23T22:18:10.821Z,25.97
2018-04-23T22:20:39.233Z,26.77
2018-04-23T22:23:07.556Z,27.83
2018-04-23T22:25:35.966Z,27.17
2018-04-23T22:28:04.329Z,30.27
2018-04-23T22:30:32.695Z,27.00
2018-04-23T22:33:01.050Z,26.37
2018-04-23T22:35:29.424Z,26.13
2018-04-23T22:37:57.879Z,28.30
2018-04-23T22:40:26.146Z,25.80
2018-04-23T22:42:54.518Z,28.03
2018-04-23T22:45:22.943Z,28.53
2018-04-23T22:47:51.287Z,26.97
2018-04-23T22:50:19.656Z,26.60
2018-04-23T22:52:48.074Z,26.13
2018-04-23T22:55:16.461Z,26.00
2018-04-23T22:57:45.678Z,26.67
2018-04-23T23:00:14.005Z,28.70
2018-04-23T23:02:42.508Z,27.43
2018-04-23T23:05:10.865Z,28.53
2018-04-23T23:07:48.450Z,26.67
2018-04-23T23:10:18.953Z,28.30
2018-04-23T23:12:49.031Z,27.50
2018-04-23T23:15:17.363Z,27.13
2018-04-23T23:17:45.721Z,28.23
2018-04-23T23:20:14.128Z,27.47
2018-04-23T23:22:42.506Z,28.40
2018-04-23T23:25:10.871Z,28.30
2018-04-23T23:27:39.272Z,26.70
2018-04-23T23:30:07.628Z,28.13
2018-04-23T23:32:36.039Z,27.67
2018-04-23T23:35:04.393Z,28.80
2018-04-23T23:37:32.764Z,28.33
2018-04-23T23:40:01.226Z,27.37
2018-04-23T23:42:29.563Z,27.33
2018-04-23T23:44:57.948Z,28.80
2018-04-23T23:47:26.295Z,26.90
2018-04-23T23:49:54.724Z,28.00
2018-04-23T23:52:23.099Z,26.47
2018-04-23T23:54:51.488Z,28.47
2018-04-23T23:57:19.844Z,28.90
2018-04-23T23:59:48.276Z,29.10
